createdAt,value
2023-04-30T00:00:44.075Z,4.50
2023-04-30T00:03:12.009Z,4.55
2023-04-30T00:05:39.933Z,4.59
2023-04-30T00:08:07.789Z,4.57
2023-04-30T00:10:35.600Z,4.55
2023-04-30T00:13:03.338Z,4.50
2023-04-30T00:15:31.360Z,4.48
2023-04-30T00:17:59.156Z,4.47
2023-04-30T00:20:27.062Z,4.45
2023-04-30T00:22:55.864Z,4.38
2023-04-30T00:25:24.804Z,4.38
2023-04-30T00:27:52.766Z,4.36
2023-04-30T00:30:20.931Z,4.35
2023-04-30T00:32:48.891Z,4.32
2023-04-30T00:35:17.234Z,4.26
2023-04-30T00:37:45.378Z,4.22
2023-04-30T00:40:13.569Z,4.21
2023-04-30T00:42:41.296Z,4.20
2023-04-30T00:45:09.601Z,4.22
2023-04-30T00:47:37.461Z,4.21
2023-04-30T00:50:06.426Z,4.21
2023-04-30T00:52:34.373Z,4.23
2023-04-30T00:55:02.477Z,4.22
2023-04-30T00:57:32.124Z,4.19
2023-04-30T01:00:00.070Z,4.13
2023-04-30T01:02:28.224Z,4.10
2023-04-30T01:04:56.634Z,4.07
2023-04-30T01:07:28.388Z,4.02
2023-04-30T01:09:56.606Z,4.03
2023-04-30T01:12:50.930Z,4.02
2023-04-30T01:15:25.753Z,4.04
2023-04-30T01:18:18.150Z,4.10
2023-04-30T01:21:02.119Z,4.16
2023-04-30T01:23:34.573Z,4.18
2023-04-30T01:26:16.024Z,4.16
2023-04-30T01:28:45.189Z,4.12
2023-04-30T01:31:14.520Z,4.08
2023-04-30T01:33:42.875Z,4.02
2023-04-30T01:36:25.819Z,4.05
2023-04-30T01:39:25.904Z,4.05
2023-04-30T01:42:08.603Z,4.05
2023-04-30T01:44:51.735Z,4.04
2023-04-30T01:47:45.315Z,4.02
2023-04-30T01:50:30.053Z,4.05
2023-04-30T01:53:04.053Z,4.07
2023-04-30T01:55:38.060Z,4.12
2023-04-30T01:58:10.791Z,4.15
2023-04-30T02:00:39.151Z,4.21
2023-04-30T02:03:08.137Z,4.29
2023-04-30T02:05:36.183Z,4.33
2023-04-30T02:08:04.795Z,4.36
2023-04-30T02:10:34.496Z,4.37
2023-04-30T02:13:04.202Z,4.42
2023-04-30T02:15:32.536Z,4.53
2023-04-30T02:18:00.488Z,4.67
2023-04-30T02:20:28.577Z,4.88
2023-04-30T02:22:56.477Z,5.12
2023-04-30T02:25:24.290Z,5.50
2023-04-30T02:27:52.047Z,5.83
2023-04-30T02:30:21.058Z,6.13
2023-04-30T02:32:48.910Z,6.35
2023-04-30T02:35:16.786Z,6.50
2023-04-30T02:37:44.663Z,6.82
2023-04-30T02:40:12.726Z,7.13
2023-04-30T02:42:40.572Z,7.52
2023-04-30T02:45:08.953Z,8.13
2023-04-30T02:47:36.819Z,9.02
2023-04-30T02:50:05.648Z,10.15
2023-04-30T02:52:33.493Z,11.47
2023-04-30T02:55:01.330Z,12.61
2023-04-30T02:57:30.706Z,13.63
2023-04-30T02:59:58.630Z,14.45
2023-04-30T03:02:26.658Z,15.26
2023-04-30T03:04:54.445Z,16.04
2023-04-30T03:07:22.282Z,16.58
2023-04-30T03:09:50.543Z,16.70
2023-04-30T03:12:18.266Z,16.14
2023-04-30T03:14:46.129Z,15.78
2023-04-30T03:17:14.874Z,15.67
2023-04-30T03:19:42.688Z,15.80
2023-04-30T03:22:11.221Z,15.90
2023-04-30T03:24:38.955Z,16.11
2023-04-30T03:27:06.781Z,16.50
2023-04-30T03:29:35.094Z,17.16
2023-04-30T03:32:03.060Z,17.55
2023-04-30T03:34:32.537Z,17.78
2023-04-30T03:37:02.006Z,17.76
2023-04-30T03:39:29.849Z,17.63
2023-04-30T03:41:57.625Z,17.07
2023-04-30T03:44:25.480Z,17.08
2023-04-30T03:46:53.259Z,16.90
2023-04-30T03:49:21.262Z,16.03
2023-04-30T03:51:49.096Z,15.78
2023-04-30T03:54:16.917Z,16.07
2023-04-30T03:56:44.842Z,16.50
2023-04-30T03:59:12.854Z,16.59
2023-04-30T04:01:40.916Z,16.71
2023-04-30T04:04:09.690Z,16.76
2023-04-30T04:06:38.055Z,16.85
2023-04-30T04:09:06.645Z,17.07
2023-04-30T04:11:34.615Z,17.18
2023-04-30T04:14:03.160Z,16.90
2023-04-30T04:16:31.247Z,15.81
2023-04-30T04:18:59.273Z,14.91
2023-04-30T04:21:27.372Z,14.59
2023-04-30T04:23:57.011Z,14.23
2023-04-30T04:26:25.823Z,14.03
2023-04-30T04:28:53.622Z,13.82
2023-04-30T04:31:22.827Z,13.60
2023-04-30T04:33:58.231Z,13.39
2023-04-30T04:36:30.572Z,13.09
2023-04-30T04:39:02.124Z,13.15
2023-04-30T04:41:34.173Z,13.00
2023-04-30T04:44:03.611Z,12.80
2023-04-30T04:46:32.551Z,12.76
2023-04-30T04:49:00.619Z,12.61
2023-04-30T04:51:31.563Z,12.54
2023-04-30T04:53:59.546Z,12.65
2023-04-30T04:56:27.550Z,13.10
2023-04-30T04:58:55.436Z,13.44
2023-04-30T05:01:23.336Z,13.60
2023-04-30T05:03:51.373Z,13.49
2023-04-30T05:06:20.431Z,13.69
2023-04-30T05:08:48.249Z,13.98
2023-04-30T05:11:16.875Z,14.17
2023-04-30T05:13:45.252Z,14.30
2023-04-30T05:16:13.346Z,14.32
2023-04-30T05:18:41.366Z,14.63
2023-04-30T05:21:09.256Z,14.41
2023-04-30T05:23:37.041Z,14.19
2023-04-30T05:26:05.581Z,14.03
2023-04-30T05:28:34.054Z,13.96
2023-04-30T05:31:01.980Z,13.91
2023-04-30T05:33:29.740Z,13.78
2023-04-30T05:35:57.595Z,13.79
2023-04-30T05:38:25.473Z,13.91
2023-04-30T05:40:53.249Z,13.67
2023-04-30T05:43:21.043Z,13.73
2023-04-30T05:45:48.950Z,13.45
2023-04-30T05:48:16.868Z,13.50
2023-04-30T05:50:44.766Z,13.72
2023-04-30T05:53:14.023Z,14.20
2023-04-30T05:55:42.417Z,14.45
2023-04-30T05:58:10.211Z,14.64
2023-04-30T06:00:39.648Z,14.70
2023-04-30T06:03:07.933Z,14.75
2023-04-30T06:05:35.832Z,15.12
2023-04-30T06:08:03.630Z,14.83
2023-04-30T06:10:31.420Z,14.88
2023-04-30T06:12:59.312Z,15.07
2023-04-30T06:15:27.282Z,14.89
2023-04-30T06:17:55.105Z,14.97
2023-04-30T06:20:23.053Z,14.53
2023-04-30T06:22:51.049Z,14.12
2023-04-30T06:25:18.885Z,14.33
2023-04-30T06:27:49.132Z,14.40
2023-04-30T06:30:17.012Z,14.51
2023-04-30T06:32:44.837Z,14.20
2023-04-30T06:35:12.639Z,13.96
2023-04-30T06:37:40.576Z,14.15
2023-04-30T06:40:08.891Z,13.90
2023-04-30T06:42:36.772Z,13.80
2023-04-30T06:45:06.816Z,13.23
2023-04-30T06:47:53.658Z,13.24
2023-04-30T06:50:22.053Z,13.75
2023-04-30T06:52:49.854Z,14.02
2023-04-30T06:55:17.743Z,13.83
2023-04-30T06:57:45.527Z,13.79
2023-04-30T07:00:16.932Z,13.22
2023-04-30T07:02:45.547Z,12.81
2023-04-30T07:05:13.683Z,12.68
2023-04-30T07:07:41.406Z,12.51
2023-04-30T07:10:09.296Z,12.71
2023-04-30T07:12:37.053Z,12.83
2023-04-30T07:15:05.205Z,12.98
2023-04-30T07:17:33.272Z,12.84
2023-04-30T07:20:01.057Z,12.59
2023-04-30T07:22:28.815Z,12.56
2023-04-30T07:24:56.682Z,12.63
2023-04-30T07:27:24.530Z,12.45
2023-04-30T07:29:52.671Z,12.24
2023-04-30T07:32:21.063Z,11.85
2023-04-30T07:34:51.546Z,11.90
2023-04-30T07:37:19.706Z,11.89
2023-04-30T07:39:47.667Z,12.01
2023-04-30T07:42:15.526Z,12.06
2023-04-30T07:44:43.299Z,12.26
2023-04-30T07:47:11.076Z,12.23
2023-04-30T07:49:39.362Z,12.18
2023-04-30T07:52:11.020Z,12.10
2023-04-30T07:54:40.159Z,11.96
2023-04-30T07:57:07.988Z,11.70
2023-04-30T07:59:35.970Z,11.54
2023-04-30T08:02:04.644Z,11.42
2023-04-30T08:04:32.589Z,11.26
2023-04-30T08:07:01.947Z,11.25
2023-04-30T08:09:29.757Z,11.23
2023-04-30T08:11:57.531Z,11.19
2023-04-30T08:14:25.457Z,11.03
2023-04-30T08:16:53.316Z,11.05
2023-04-30T08:19:21.191Z,11.05
2023-04-30T08:21:49.110Z,11.24
2023-04-30T08:24:17.234Z,11.28
2023-04-30T08:26:48.140Z,11.29
2023-04-30T08:29:16.230Z,11.25
2023-04-30T08:31:44.256Z,11.14
2023-04-30T08:34:12.083Z,11.02
2023-04-30T08:36:39.915Z,11.06
2023-04-30T08:39:08.026Z,11.15
2023-04-30T08:41:36.930Z,11.27
2023-04-30T08:44:06.883Z,11.27
2023-04-30T08:46:38.322Z,11.33
2023-04-30T08:49:06.496Z,11.19
2023-04-30T08:51:35.369Z,10.96
2023-04-30T08:54:06.206Z,10.82
2023-04-30T08:56:35.381Z,10.76
2023-04-30T08:59:03.289Z,10.70
2023-04-30T09:01:31.267Z,10.63
2023-04-30T09:03:59.490Z,10.60
2023-04-30T09:06:27.609Z,10.75
2023-04-30T09:08:56.495Z,10.90
2023-04-30T09:11:28.272Z,11.05
2023-04-30T09:14:00.393Z,11.21
2023-04-30T09:16:37.282Z,11.18
2023-04-30T09:19:05.086Z,11.13
2023-04-30T09:21:37.194Z,11.20
2023-04-30T09:24:16.586Z,11.25
2023-04-30T09:26:49.758Z,11.14
2023-04-30T09:29:18.195Z,11.18
2023-04-30T09:31:47.741Z,11.19
2023-04-30T09:34:15.652Z,11.16
2023-04-30T09:36:56.144Z,11.10
2023-04-30T09:39:24.652Z,10.99
2023-04-30T09:42:11.464Z,10.99
2023-04-30T09:44:40.613Z,11.10
2023-04-30T09:47:21.994Z,11.30
2023-04-30T09:49:54.291Z,11.34
2023-04-30T09:52:22.399Z,11.42
2023-04-30T09:54:50.316Z,11.49
2023-04-30T09:57:23.395Z,11.38
2023-04-30T09:59:51.184Z,11.31
2023-04-30T10:02:20.351Z,11.25
2023-04-30T10:04:50.012Z,11.35
2023-04-30T10:07:22.193Z,11.45
2023-04-30T10:10:10.537Z,11.58
2023-04-30T10:12:51.406Z,11.55
2023-04-30T10:15:31.130Z,11.50
2023-04-30T10:18:04.567Z,11.60
2023-04-30T10:20:35.202Z,11.63
2023-04-30T10:23:03.569Z,11.58
2023-04-30T10:25:33.022Z,11.56
2023-04-30T10:28:03.234Z,11.74
2023-04-30T10:30:32.948Z,11.76
2023-04-30T10:33:10.965Z,11.82
2023-04-30T10:35:47.314Z,11.90
2023-04-30T10:38:22.871Z,11.77
2023-04-30T10:40:51.332Z,11.78
2023-04-30T10:43:20.192Z,11.77
2023-04-30T10:45:48.712Z,11.71
2023-04-30T10:48:24.496Z,11.71
2023-04-30T10:50:55.062Z,11.68
2023-04-30T10:53:26.092Z,11.67
2023-04-30T10:55:55.323Z,11.58
2023-04-30T10:58:26.062Z,11.68
2023-04-30T11:01:13.879Z,11.66
2023-04-30T11:03:43.826Z,11.54
2023-04-30T11:06:16.191Z,11.48
2023-04-30T11:08:46.053Z,11.45
2023-04-30T11:11:24.008Z,11.31
2023-04-30T11:14:02.236Z,11.31
2023-04-30T11:16:32.934Z,11.27
2023-04-30T11:19:12.010Z,11.20
2023-04-30T11:22:03.171Z,11.17
2023-04-30T11:24:53.408Z,11.28
2023-04-30T11:27:25.049Z,11.39
2023-04-30T11:29:54.313Z,11.42
2023-04-30T11:32:23.930Z,11.47
2023-04-30T11:34:51.996Z,11.42
2023-04-30T11:37:22.077Z,11.38
2023-04-30T11:39:50.541Z,11.39
2023-04-30T11:42:21.370Z,11.37
2023-04-30T11:45:02.674Z,11.37
2023-04-30T11:47:51.388Z,11.35
2023-04-30T11:50:27.458Z,11.42
2023-04-30T11:52:57.822Z,11.46
2023-04-30T11:55:26.838Z,11.59
2023-04-30T11:57:56.746Z,11.61
2023-04-30T12:00:37.739Z,11.55
2023-04-30T12:03:05.754Z,11.48
2023-04-30T12:05:33.618Z,11.44
2023-04-30T12:08:08.065Z,11.36
2023-04-30T12:10:36.725Z,11.36
2023-04-30T12:13:04.582Z,11.32
2023-04-30T12:15:33.499Z,11.33
2023-04-30T12:18:16.304Z,11.31
2023-04-30T12:20:44.074Z,11.33
2023-04-30T12:23:11.989Z,11.27
2023-04-30T12:25:44.094Z,11.20
2023-04-30T12:28:12.166Z,11.14
2023-04-30T12:30:43.927Z,11.15
2023-04-30T12:33:12.275Z,11.00
2023-04-30T12:35:43.586Z,10.90
2023-04-30T12:38:18.591Z,10.77
2023-04-30T12:40:49.685Z,10.73
2023-04-30T12:43:18.655Z,10.74
2023-04-30T12:45:54.563Z,10.75
2023-04-30T12:48:27.020Z,10.75
2023-04-30T12:51:00.287Z,10.82
2023-04-30T12:53:29.299Z,10.83
2023-04-30T12:56:15.995Z,10.87
2023-04-30T12:58:48.532Z,10.82
2023-04-30T13:01:25.973Z,10.85
2023-04-30T13:03:57.062Z,10.85
2023-04-30T13:06:25.378Z,10.71
2023-04-30T13:11:24.934Z,10.77
2023-04-30T13:13:52.745Z,10.72
2023-04-30T13:16:23.382Z,10.75
2023-04-30T13:18:54.597Z,10.70
2023-04-30T13:21:23.408Z,10.64
2023-04-30T13:23:54.067Z,10.56
2023-04-30T13:26:23.712Z,10.46
2023-04-30T13:28:52.268Z,10.42
2023-04-30T13:31:20.756Z,10.40
2023-04-30T13:33:49.348Z,10.35
2023-04-30T13:36:17.447Z,10.29
2023-04-30T13:38:47.816Z,10.17
2023-04-30T13:41:15.672Z,10.20
2023-04-30T13:43:44.868Z,10.21
2023-04-30T13:46:14.347Z,10.22
2023-04-30T13:48:48.595Z,10.23
2023-04-30T13:51:17.025Z,10.08
2023-04-30T13:53:44.896Z,10.17
2023-04-30T13:56:12.978Z,10.24
2023-04-30T13:58:40.799Z,10.32
2023-04-30T14:01:09.895Z,10.29
2023-04-30T14:03:37.948Z,10.25
2023-04-30T14:06:06.187Z,10.23
2023-04-30T14:08:34.034Z,10.13
2023-04-30T14:11:01.895Z,10.10
2023-04-30T14:13:33.141Z,10.07
2023-04-30T14:16:00.992Z,10.02
2023-04-30T14:18:28.863Z,9.98
2023-04-30T14:21:00.821Z,9.95
2023-04-30T14:23:29.251Z,9.89
2023-04-30T14:25:57.112Z,9.90
2023-04-30T14:28:25.069Z,9.87
2023-04-30T14:30:53.078Z,9.84
2023-04-30T14:33:20.804Z,9.88
2023-04-30T14:35:49.180Z,9.88
2023-04-30T14:38:16.978Z,9.78
2023-04-30T14:40:45.111Z,9.75
2023-04-30T14:43:13.070Z,9.81
2023-04-30T14:45:41.071Z,9.76
2023-04-30T14:48:09.029Z,9.72
2023-04-30T14:50:37.224Z,9.70
2023-04-30T14:53:06.123Z,9.68
2023-04-30T14:55:34.074Z,9.65
2023-04-30T14:58:01.926Z,9.64
2023-04-30T15:00:29.831Z,9.65
2023-04-30T15:02:57.770Z,9.64
2023-04-30T15:05:26.393Z,9.62
2023-04-30T15:07:54.179Z,9.64
2023-04-30T15:10:21.937Z,9.65
2023-04-30T15:12:49.642Z,9.60
2023-04-30T15:15:18.877Z,9.60
2023-04-30T15:17:47.126Z,9.54
2023-04-30T15:20:14.942Z,9.57
2023-04-30T15:22:42.922Z,9.58
2023-04-30T15:25:10.809Z,9.54
2023-04-30T15:27:39.311Z,9.52
2023-04-30T15:30:07.866Z,9.49
2023-04-30T15:32:35.675Z,9.50
2023-04-30T15:35:03.998Z,9.48
2023-04-30T15:37:32.241Z,9.40
2023-04-30T15:40:00.333Z,9.37
2023-04-30T15:42:28.216Z,9.38
2023-04-30T15:44:56.044Z,9.35
2023-04-30T15:47:25.066Z,9.35
2023-04-30T15:49:52.995Z,9.30
2023-04-30T15:52:20.907Z,9.29
2023-04-30T15:54:49.050Z,9.29
2023-04-30T15:57:16.979Z,9.30
2023-04-30T15:59:44.790Z,9.25
2023-04-30T16:02:12.927Z,9.24
2023-04-30T16:04:41.528Z,9.24
2023-04-30T16:07:09.479Z,9.23
2023-04-30T16:09:37.183Z,9.17
2023-04-30T16:12:05.183Z,9.15
2023-04-30T16:14:33.582Z,9.00
2023-04-30T16:17:01.497Z,8.95
2023-04-30T16:19:29.349Z,8.98
2023-04-30T16:21:57.298Z,8.98
2023-04-30T16:24:25.139Z,8.94
2023-04-30T16:26:52.958Z,8.91
2023-04-30T16:29:20.817Z,8.78
2023-04-30T16:31:48.745Z,8.71
2023-04-30T16:34:16.592Z,8.55
2023-04-30T16:36:44.329Z,8.50
2023-04-30T16:39:12.508Z,8.41
2023-04-30T16:41:40.423Z,8.35
2023-04-30T16:44:09.929Z,8.28
2023-04-30T16:46:38.205Z,8.20
2023-04-30T16:49:06.238Z,8.13
2023-04-30T16:51:34.224Z,8.05
2023-04-30T16:54:02.200Z,8.02
2023-04-30T16:56:29.984Z,7.90
2023-04-30T16:58:57.872Z,7.85
2023-04-30T17:01:26.249Z,7.74
2023-04-30T17:03:55.565Z,7.63
2023-04-30T17:06:23.897Z,7.43
2023-04-30T17:08:53.404Z,7.35
2023-04-30T17:11:25.325Z,7.32
2023-04-30T17:13:55.316Z,7.25
2023-04-30T17:16:23.905Z,7.13
2023-04-30T17:18:51.762Z,6.88
2023-04-30T17:21:19.770Z,6.93
2023-04-30T17:23:47.868Z,6.64
2023-04-30T17:26:15.682Z,6.68
2023-04-30T17:28:44.393Z,6.60
2023-04-30T17:31:15.556Z,6.64
2023-04-30T17:33:46.315Z,6.50
2023-04-30T17:36:18.263Z,6.50
2023-04-30T17:38:59.851Z,6.54
2023-04-30T17:41:28.000Z,6.59
2023-04-30T17:43:58.879Z,6.57
2023-04-30T17:46:29.455Z,6.52
2023-04-30T17:49:05.698Z,6.33
2023-04-30T17:51:39.790Z,6.42
2023-04-30T17:54:08.066Z,6.23
2023-04-30T17:56:41.151Z,6.26
2023-04-30T17:59:36.665Z,6.14
2023-04-30T18:02:12.392Z,5.99
2023-04-30T18:05:27.157Z,6.18
2023-04-30T18:08:08.493Z,6.08
2023-04-30T18:10:59.057Z,5.97
2023-04-30T18:13:34.490Z,5.95
2023-04-30T18:16:22.764Z,6.15
2023-04-30T18:19:18.369Z,6.22
2023-04-30T18:22:36.929Z,6.03
2023-04-30T18:24:45.758Z,6.02
2023-04-30T18:27:23.019Z,5.99
2023-04-30T18:30:23.200Z,5.92
2023-04-30T18:33:14.712Z,5.86
2023-04-30T18:36:34.453Z,6.09
2023-04-30T18:39:07.799Z,5.83
2023-04-30T18:44:44.796Z,6.06
2023-04-30T18:47:31.024Z,6.01
2023-04-30T18:50:25.345Z,6.08
2023-04-30T18:52:58.310Z,5.88
2023-04-30T18:55:47.490Z,6.05
2023-04-30T18:58:32.021Z,5.88
2023-04-30T19:01:02.541Z,5.76
2023-04-30T19:03:34.355Z,5.91
2023-04-30T19:06:04.036Z,5.88
2023-04-30T19:08:32.492Z,5.75
2023-04-30T19:11:00.677Z,5.78
2023-04-30T19:13:29.708Z,5.73
2023-04-30T19:15:58.159Z,5.74
2023-04-30T19:18:26.079Z,5.81
2023-04-30T19:21:05.595Z,5.82
2023-04-30T19:23:35.484Z,5.74
2023-04-30T19:26:03.568Z,5.73
2023-04-30T19:28:31.675Z,5.85
2023-04-30T19:31:00.065Z,5.61
2023-04-30T19:33:30.318Z,5.63
2023-04-30T19:35:58.600Z,5.71
2023-04-30T19:38:27.340Z,5.72
2023-04-30T19:40:55.453Z,5.73
2023-04-30T19:43:29.250Z,5.71
2023-04-30T19:46:04.080Z,5.61
2023-04-30T19:48:32.361Z,5.74
2023-04-30T19:51:12.471Z,5.76
2023-04-30T19:53:40.588Z,5.78
2023-04-30T19:56:18.050Z,5.81
2023-04-30T19:58:51.003Z,5.88
2023-04-30T20:01:21.360Z,5.71
2023-04-30T20:03:56.246Z,5.78
2023-04-30T20:06:24.613Z,5.75
2023-04-30T20:08:55.173Z,5.82
2023-04-30T20:11:23.479Z,5.68
2023-04-30T20:13:51.781Z,5.67
2023-04-30T20:16:23.034Z,5.62
2023-04-30T20:18:57.066Z,5.70
2023-04-30T20:21:34.800Z,5.67
2023-04-30T20:24:06.430Z,5.64
2023-04-30T20:26:39.429Z,5.44
2023-04-30T20:29:24.103Z,5.58
2023-04-30T20:32:05.779Z,5.69
2023-04-30T20:34:39.576Z,5.59
2023-04-30T20:37:15.665Z,5.51
2023-04-30T20:39:47.090Z,5.57
2023-04-30T20:42:19.541Z,5.72
2023-04-30T20:44:48.139Z,5.58
2023-04-30T20:47:19.094Z,5.72
2023-04-30T20:49:50.029Z,5.64
2023-04-30T20:52:19.227Z,5.65
2023-04-30T20:54:48.531Z,5.73
2023-04-30T20:57:17.217Z,5.78
2023-04-30T20:59:47.743Z,5.80
2023-04-30T21:02:15.831Z,5.81
2023-04-30T21:04:46.428Z,5.76
2023-04-30T21:07:15.621Z,5.76
2023-04-30T21:09:44.131Z,5.76
2023-04-30T21:12:12.949Z,5.80
2023-04-30T21:14:41.620Z,5.84
2023-04-30T21:17:09.798Z,5.90
2023-04-30T21:19:37.795Z,5.85
2023-04-30T21:22:05.657Z,5.90
2023-04-30T21:24:33.463Z,5.90
2023-04-30T21:27:04.519Z,5.88
2023-04-30T21:29:33.050Z,5.91
2023-04-30T21:32:01.968Z,5.92
2023-04-30T21:34:33.899Z,5.90
2023-04-30T21:37:02.118Z,5.86
2023-04-30T21:39:31.079Z,5.80
2023-04-30T21:41:59.000Z,5.87
2023-04-30T21:44:26.740Z,5.95
2023-04-30T21:46:54.703Z,6.01
2023-04-30T21:49:22.436Z,5.99
2023-04-30T21:51:50.177Z,6.01
2023-04-30T21:54:19.403Z,5.93
2023-04-30T21:56:47.186Z,5.92
2023-04-30T21:59:14.968Z,5.97
2023-04-30T22:01:42.957Z,5.96
2023-04-30T22:04:10.826Z,5.94
2023-04-30T22:06:38.813Z,5.97
2023-04-30T22:09:06.673Z,6.02
2023-04-30T22:11:34.452Z,6.02
2023-04-30T22:14:02.223Z,6.04
2023-04-30T22:16:30.120Z,6.10
2023-04-30T22:18:59.092Z,6.09
2023-04-30T22:21:27.127Z,6.06
2023-04-30T22:23:55.102Z,6.01
2023-04-30T22:26:24.213Z,6.03
2023-04-30T22:28:53.207Z,6.03
2023-04-30T22:31:21.100Z,6.02
2023-04-30T22:33:49.787Z,6.04
2023-04-30T22:36:17.654Z,6.03
2023-04-30T22:38:45.692Z,6.03
2023-04-30T22:41:13.703Z,6.05
2023-04-30T22:43:41.951Z,6.04
2023-04-30T22:46:10.835Z,6.08
2023-04-30T22:48:38.636Z,6.18
2023-04-30T22:51:06.999Z,6.17
2023-04-30T22:53:34.860Z,6.18
2023-04-30T22:56:02.632Z,6.16
2023-04-30T22:58:30.406Z,6.18
2023-04-30T23:00:58.334Z,6.25
2023-04-30T23:03:26.311Z,6.27
2023-04-30T23:05:54.091Z,6.30
2023-04-30T23:08:21.987Z,6.25
2023-04-30T23:10:49.807Z,6.22
2023-04-30T23:13:18.574Z,6.23
2023-04-30T23:15:46.402Z,6.17
2023-04-30T23:18:14.177Z,6.14
2023-04-30T23:20:42.362Z,6.15
2023-04-30T23:23:10.398Z,6.16
2023-04-30T23:25:38.439Z,6.17
2023-04-30T23:28:06.278Z,6.14
2023-04-30T23:30:38.093Z,6.09
2023-04-30T23:33:05.874Z,6.08
2023-04-30T23:35:33.782Z,6.11
2023-04-30T23:38:01.762Z,6.14
2023-04-30T23:40:29.820Z,6.15
2023-04-30T23:42:58.727Z,6.13
2023-04-30T23:45:26.605Z,6.16
2023-04-30T23:47:54.412Z,6.19
2023-04-30T23:50:22.346Z,6.24
2023-04-30T23:52:50.628Z,6.27
2023-04-30T23:55:18.534Z,6.28
2023-04-30T23:57:48.633Z,6.27
